Impacts TAF Board
For situational awareness. Not to be used for flight planning purposes.
IDs:

PAJN - Juneau Intl Arpt, AK, US

Issued at 1144 UTC 03 Dec 2021
Updated at 1611 UTC 03 Dec 2021
Potential Impact None Slight Moderate High
Time1608Z 03/17Z 03/18Z 03/19Z 03/20Z 03/21Z 03/22Z 03/23Z 04/00Z 04/01Z 04/02Z 04/03Z 04/04Z 04/05Z>>
Type OBS PRVL PRVL PRVL PRVL PRVL PRVL PRVL PRVL PRVL PRVL PRVL PRVL PRVL
VIS 2.5 3 3 3 3 3 3 >6 >6 >6 >6 >6 >6 >6
CIG 29 25 25 25 25 25 25 50 50 50 50 50 50 50
Cover OVC OVC OVC OVC OVC OVC OVC BKN BKN BKN BKN BKN BKN BKN
FltCat IFR MVFR MVFR MVFR MVFR MVFR MVFR VFR VFR VFR VFR VFR VFR VFR
WX -SN BR -SHSN -SHSN -SHSN -SHSN -SHSN -SHSN -- -- -- -- -- -- --
WDir 70 90 90 90 90 90 90 120 120 120 120 120 120 120
WSpd 5 10 10 10 10 10 10 7 7 7 7 7 7 7
WGst -- -- -- -- -- -- -- -- -- -- -- -- -- --
WSHgt -- -- -- -- -- -- -- -- -- -- -- -- -- --
WSDir -- -- -- -- -- -- -- -- -- -- -- -- -- --
WSSpd -- -- -- -- -- -- -- -- -- -- -- -- -- --
Raw TAF
PAJN 031144Z 0312/0412 07007KT 5SM -SHSN FEW010 BKN035
  TEMPO 0312/0316 1/2SM SHSN BKN015
  FM031700 09010KT 3SM -SHSN OVC025
  FM032300 12007KT P6SM BKN050


Raw METAR
PAJN 031608Z 07005KT 2 1/2SM -SN BR FEW007 SCT015 OVC029 M01/M03 A3008 RMK AO2 P0000 T10111028 $
PAJN 031553Z COR 07004KT 9SM -SN FEW007 BKN029 OVC037 M02/M04 A3008 RMK AO2 SLP187 PCPN INTMT AND VRY LGT P0000 T10171039 $
PAJN 031542Z 08003KT 9SM -SN FEW007 BKN029 OVC037 M02/M04 A3008 RMK AO2 P0000 T10171039 $
PAJN 031453Z 08003KT 10SM -SN FEW007 SCT045 SCT055 M01/M03 A3008 RMK AO2 SNE32B49 SLP187 P0000 60006 T10111033 53004 $
PAJN 031433Z 06005KT 9SM FEW007 SCT060 M02/M04 A3008 RMK AO2 SNE32 P0000 T10171039 $
PAJN 031353Z 07008KT 9SM -SN SCT007 BKN050 OVC065 M01/M03 A3008 RMK AO2 SLP185 PCPN VRY LGT P0000 T10111033 $
PAJN 031331Z 08006KT 9SM -SN SCT007 BKN031 OVC046 M01/M03 A3008 RMK AO2 P0000 T10061028 $

METAR Board
Radar Display
Forecast Discussion
For situational awareness. Not to be used for flight planning purposes.